Quick Links (Output Below):   Max & Min Temps   /   Climate Reports   /   Zone Forecasts
River Forecasts   /   Forestry Forecasts   /   Aviation Forecasts   /   Radars   /   Features

Terminal Aerodrome Forecast (Fayetteville)

Pick a Site:
Arkadelphia | El Dorado | Fayetteville | Fort Smith | Harrison | Highfill | Hot Springs | Jonesboro
Little Rock | Monticello | Mountain Home | Pine Bluff | Texarkana
 Forecast 

KFYV 180112Z 1801/1824 36011KT P6SM SCT080 BKN120
     FM180500 VRB03KT P6SM SCT100=


 Latest METARs (Observations) 
How to Decode METARs
03Z KFYV 180253Z AUTO 00000KT 10SM BKN100 BKN120 13/06 A3023 RMK AO2
         SLP234 T01330056 51015
         
02Z KFYV 180153Z 36006KT 10SM BKN075 OVC100 14/05 A3023 RMK AO2 SLP234
         T01390050
         
01Z KFYV 180053Z 34013KT 10SM SCT075 14/05 A3020 RMK AO2 SLP228
         T01440050
         
00Z KFYV 172353Z 32006KT 10SM BKN080 17/04 A3019 RMK AO2 SLP223
         T01670039 10194 20167 53003
         
***** Today's Observations (Above) *****


23Z KFYV 172253Z 33008KT 10SM CLR 18/04 A3018 RMK AO2 SLP218
         T01830044
         
22Z KFYV 172153Z 32005KT 10SM SCT080 18/05 A3018 RMK AO2 SLP219
         T01780050
         
21Z KFYV 172053Z 01005KT 10SM FEW080 19/04 A3018 RMK AO2 SLP218
         T01940044 56011
         
20Z KFYV 171953Z 03005G15KT 10SM CLR 19/04 A3018 RMK AO2 SLP220
         T01890039
         
19Z KFYV 171853Z 34009KT 10SM CLR 19/04 A3019 RMK AO2 SLP222
         T01890044
         
18Z KFYV 171753Z 31007KT 270V330 10SM CLR 17/03 A3021 RMK AO2 SLP230
         T01720033 10178 20011 58005
         
***** Yesterday's Observations (Above) *****


Back to Main Page
http://www.srh.noaa.gov/lzk/qfcst.php

USA.gov is the U.S. government's official web portal to all federal, state and local government web resources and services.